createdAt,value
2023-05-01T00:01:48.953Z,100620.91
2023-05-01T00:04:15.919Z,100609.75
2023-05-01T00:06:42.875Z,100594.81
2023-05-01T00:09:09.687Z,100604.94
2023-05-01T00:11:37.784Z,100602.13
2023-05-01T00:14:04.859Z,100600.97
2023-05-01T00:16:31.644Z,100602.16
2023-05-01T00:18:58.789Z,100523.28
2023-05-01T00:21:25.587Z,100596.84
2023-05-01T00:23:52.353Z,100592.50
2023-05-01T00:26:19.255Z,100592.19
2023-05-01T00:28:46.108Z,100582.88
2023-05-01T00:31:13.174Z,100580.34
2023-05-01T00:33:40.977Z,100579.69
2023-05-01T00:36:07.841Z,100581.34
2023-05-01T00:38:34.994Z,100569.22
2023-05-01T00:41:01.870Z,100563.91
2023-05-01T00:43:28.645Z,100554.59
2023-05-01T00:45:55.444Z,100561.91
2023-05-01T00:48:22.347Z,100538.16
2023-05-01T00:50:49.117Z,100534.81
2023-05-01T00:53:16.018Z,100550.59
2023-05-01T00:55:43.523Z,100515.22
2023-05-01T00:58:11.057Z,100544.13
2023-05-01T01:00:38.163Z,100546.13
2023-05-01T01:03:05.189Z,100542.25
2023-05-01T01:05:32.820Z,100539.09
2023-05-01T01:08:15.972Z,100534.63
2023-05-01T01:10:42.722Z,100533.97
2023-05-01T01:13:19.492Z,100529.66
2023-05-01T01:15:50.903Z,100490.88
2023-05-01T01:18:40.695Z,100523.97
2023-05-01T01:21:23.747Z,100538.97
2023-05-01T01:24:17.420Z,100525.16
2023-05-01T01:27:12.148Z,100525.50
2023-05-01T01:30:29.962Z,100532.28
2023-05-01T01:33:16.759Z,100527.31
2023-05-01T01:35:47.221Z,100514.97
2023-05-01T01:38:18.278Z,100517.78
2023-05-01T01:40:54.087Z,100527.16
2023-05-01T01:43:20.827Z,100531.13
2023-05-01T01:45:48.234Z,100481.38
2023-05-01T01:48:19.594Z,100521.34
2023-05-01T01:50:46.772Z,100516.34
2023-05-01T01:53:15.324Z,100516.66
2023-05-01T01:55:42.721Z,100484.53
2023-05-01T01:58:10.765Z,100489.34
2023-05-01T02:00:38.200Z,100512.63
2023-05-01T02:03:05.184Z,100486.66
2023-05-01T02:05:32.376Z,100515.59
2023-05-01T02:07:59.162Z,100498.78
2023-05-01T02:10:26.033Z,100475.34
2023-05-01T02:12:53.441Z,100507.13
2023-05-01T02:15:20.183Z,100516.06
2023-05-01T02:17:47.039Z,100522.88
2023-05-01T02:20:13.909Z,100521.53
2023-05-01T02:22:41.163Z,100476.81
2023-05-01T02:25:10.225Z,100514.91
2023-05-01T02:27:41.120Z,100510.72
2023-05-01T02:30:08.630Z,100495.25
2023-05-01T02:32:35.722Z,100525.34
2023-05-01T02:35:02.580Z,100529.47
2023-05-01T02:37:30.906Z,100524.16
2023-05-01T02:39:58.820Z,100502.69
2023-05-01T02:42:26.206Z,100523.31
2023-05-01T02:45:05.992Z,100519.03
2023-05-01T02:47:34.273Z,100529.66
2023-05-01T02:50:01.114Z,100488.22
2023-05-01T02:52:28.724Z,100538.78
2023-05-01T02:54:55.451Z,100528.34
2023-05-01T02:57:22.385Z,100498.91
2023-05-01T02:59:49.192Z,100524.84
2023-05-01T03:02:18.666Z,100526.88
2023-05-01T03:04:45.459Z,100532.38
2023-05-01T03:07:12.399Z,100532.53
2023-05-01T03:09:39.246Z,100524.25
2023-05-01T03:12:06.093Z,100529.75
2023-05-01T03:14:33.187Z,100521.78
2023-05-01T03:16:59.989Z,100524.16
2023-05-01T03:19:27.229Z,100519.81
2023-05-01T03:21:54.109Z,100527.31
2023-05-01T03:24:21.123Z,100502.31
2023-05-01T03:26:48.655Z,100527.97
2023-05-01T03:29:15.500Z,100525.97
2023-05-01T03:31:42.423Z,100532.63
2023-05-01T03:34:09.185Z,100530.97
2023-05-01T03:36:36.625Z,100529.28
2023-05-01T03:39:05.018Z,100518.00
2023-05-01T03:41:32.351Z,100541.28
2023-05-01T03:43:59.425Z,100532.81
2023-05-01T03:46:26.159Z,100529.47
2023-05-01T03:48:52.960Z,100536.28
2023-05-01T03:51:19.838Z,100538.06
2023-05-01T03:53:46.542Z,100510.94
2023-05-01T03:56:13.357Z,100534.75
2023-05-01T03:58:40.138Z,100537.69
2023-05-01T04:01:06.909Z,100531.06
2023-05-01T04:03:33.809Z,100532.38
2023-05-01T04:06:00.853Z,100539.34
2023-05-01T04:08:27.609Z,100508.72
2023-05-01T04:10:54.437Z,100518.78
2023-05-01T04:13:21.532Z,100520.91
2023-05-01T04:15:48.501Z,100528.00
2023-05-01T04:18:15.415Z,100505.69
2023-05-01T04:20:42.377Z,100526.41
2023-05-01T04:23:09.727Z,100531.50
2023-05-01T04:25:37.103Z,100522.97
2023-05-01T04:28:04.108Z,100531.38
2023-05-01T04:30:33.783Z,100490.72
2023-05-01T04:33:00.365Z,100523.72
2023-05-01T04:35:27.211Z,100529.59
2023-05-01T04:37:54.082Z,100504.03
2023-05-01T04:40:21.020Z,100527.97
2023-05-01T04:42:47.756Z,100530.44
2023-05-01T04:45:14.586Z,100531.94
2023-05-01T04:47:41.420Z,100543.00
2023-05-01T04:50:08.498Z,100538.69
2023-05-01T04:52:36.096Z,100541.28
2023-05-01T04:55:04.006Z,100535.84
2023-05-01T04:57:30.816Z,100540.03
2023-05-01T04:59:57.967Z,100526.31
2023-05-01T05:02:25.248Z,100540.59
2023-05-01T05:04:54.064Z,100541.84
2023-05-01T05:07:21.217Z,100544.66
2023-05-01T05:09:48.158Z,100531.75
2023-05-01T05:12:15.228Z,100534.13
2023-05-01T05:14:42.432Z,100518.16
2023-05-01T05:17:09.817Z,100525.47
2023-05-01T05:19:36.746Z,100505.66
2023-05-01T05:22:04.008Z,100533.47
2023-05-01T05:24:31.132Z,100502.28
2023-05-01T05:26:58.109Z,100552.22
2023-05-01T05:29:24.950Z,100566.28
2023-05-01T05:31:51.872Z,100553.38
2023-05-01T05:34:19.579Z,100551.69
2023-05-01T05:36:46.411Z,100552.72
2023-05-01T05:39:14.852Z,100555.53
2023-05-01T05:41:41.630Z,100551.88
2023-05-01T05:44:08.435Z,100544.00
2023-05-01T05:46:35.401Z,100556.50
2023-05-01T05:49:02.181Z,100560.91
2023-05-01T05:51:28.921Z,100545.47
2023-05-01T05:53:55.755Z,100539.09
2023-05-01T05:56:23.246Z,100561.94
2023-05-01T05:58:50.029Z,100557.31
2023-05-01T06:01:18.041Z,100516.06
2023-05-01T06:03:44.913Z,100526.28
2023-05-01T06:06:11.710Z,100449.81
2023-05-01T06:08:38.756Z,100566.59
2023-05-01T06:11:05.650Z,100506.13
2023-05-01T06:13:33.004Z,100572.69
2023-05-01T06:16:00.007Z,100522.50
2023-05-01T06:18:27.259Z,100566.28
2023-05-01T06:20:54.523Z,100573.84
2023-05-01T06:23:21.406Z,100575.75
2023-05-01T06:25:49.211Z,100584.66
2023-05-01T06:28:16.131Z,100586.50
2023-05-01T06:30:43.027Z,100594.03
2023-05-01T06:33:10.479Z,100604.84
2023-05-01T06:35:39.800Z,100598.69
2023-05-01T06:38:07.030Z,100602.97
2023-05-01T06:40:35.283Z,100620.59
2023-05-01T06:43:03.116Z,100604.97
2023-05-01T06:45:29.954Z,100608.78
2023-05-01T06:47:56.892Z,100621.59
2023-05-01T06:50:23.668Z,100610.13
2023-05-01T06:52:50.524Z,100612.16
2023-05-01T06:55:17.255Z,100618.97
2023-05-01T06:57:44.046Z,100620.13
2023-05-01T07:00:11.538Z,100619.09
2023-05-01T07:02:38.587Z,100597.94
2023-05-01T07:05:05.740Z,100626.81
2023-05-01T07:07:32.682Z,100621.16
2023-05-01T07:09:59.573Z,100626.50
2023-05-01T07:12:26.977Z,100623.78
2023-05-01T07:14:53.973Z,100629.94
2023-05-01T07:17:20.836Z,100611.13
2023-05-01T07:19:47.670Z,100611.91
2023-05-01T07:22:14.500Z,100624.97
2023-05-01T07:24:41.224Z,100619.28
2023-05-01T07:27:08.118Z,100598.41
2023-05-01T07:29:40.321Z,100617.06
2023-05-01T07:32:07.642Z,100600.72
2023-05-01T07:34:34.710Z,100626.72
2023-05-01T07:37:01.749Z,100615.81
2023-05-01T07:39:28.477Z,100621.22
2023-05-01T07:41:57.055Z,100619.50
2023-05-01T07:44:24.470Z,100623.72
2023-05-01T07:46:51.192Z,100612.13
2023-05-01T07:49:17.910Z,100618.03
2023-05-01T07:51:45.789Z,100580.31
2023-05-01T07:54:14.981Z,100613.78
2023-05-01T07:56:41.960Z,100613.78
2023-05-01T07:59:08.886Z,100612.13
2023-05-01T08:01:36.634Z,100606.88
2023-05-01T08:04:03.530Z,100593.38
2023-05-01T08:06:32.216Z,100602.16
2023-05-01T08:08:59.083Z,100604.22
2023-05-01T08:11:26.928Z,100594.31
2023-05-01T08:13:53.799Z,100610.69
2023-05-01T08:16:22.099Z,100614.63
2023-05-01T08:18:49.097Z,100616.38
2023-05-01T08:21:16.044Z,100618.41
2023-05-01T08:23:42.793Z,100591.22
2023-05-01T08:26:09.766Z,100617.16
2023-05-01T08:28:36.752Z,100606.81
2023-05-01T08:31:04.026Z,100588.66
2023-05-01T08:33:30.864Z,100595.81
2023-05-01T08:35:57.731Z,100617.53
2023-05-01T08:38:24.444Z,100612.00
2023-05-01T08:40:54.413Z,100583.66
2023-05-01T08:43:21.362Z,100622.81
2023-05-01T08:45:48.996Z,100624.91
2023-05-01T08:48:18.026Z,100614.81
2023-05-01T08:50:46.648Z,100597.09
2023-05-01T08:53:15.444Z,100610.69
2023-05-01T08:55:44.435Z,100599.56
2023-05-01T08:58:11.299Z,100613.78
2023-05-01T09:00:39.464Z,100609.56
2023-05-01T09:03:06.347Z,100615.94
2023-05-01T09:05:33.405Z,100587.28
2023-05-01T09:08:00.475Z,100620.88
2023-05-01T09:10:27.315Z,100598.72
2023-05-01T09:12:58.721Z,100605.56
2023-05-01T09:15:29.043Z,100609.81
2023-05-01T09:17:56.563Z,100597.88
2023-05-01T09:20:23.599Z,100616.50
2023-05-01T09:22:50.826Z,100612.06
2023-05-01T09:25:18.318Z,100612.59
2023-05-01T09:27:46.102Z,100608.25
2023-05-01T09:30:36.831Z,100593.53
2023-05-01T09:33:14.289Z,100595.22
2023-05-01T09:35:54.992Z,100561.09
2023-05-01T09:38:26.147Z,100595.25
2023-05-01T09:40:57.334Z,100569.38
2023-05-01T09:43:27.898Z,100599.88
2023-05-01T09:46:05.564Z,100584.69
2023-05-01T09:48:35.250Z,100585.56
2023-05-01T09:51:24.172Z,100583.94
2023-05-01T09:53:51.561Z,100591.75
2023-05-01T09:56:19.189Z,100601.25
2023-05-01T09:58:46.762Z,100603.31
2023-05-01T10:01:13.632Z,100613.63
2023-05-01T10:03:40.671Z,100576.59
2023-05-01T10:06:07.541Z,100619.41
2023-05-01T10:08:49.486Z,100602.13
2023-05-01T10:11:16.300Z,100618.56
2023-05-01T10:13:43.069Z,100621.44
2023-05-01T10:16:29.495Z,100612.38
2023-05-01T10:18:57.686Z,100616.00
2023-05-01T10:21:24.548Z,100619.25
2023-05-01T10:23:52.910Z,100620.03
2023-05-01T10:26:20.781Z,100627.38
2023-05-01T10:28:49.067Z,100617.00
2023-05-01T10:31:16.596Z,100588.59
2023-05-01T10:33:44.199Z,100618.50
2023-05-01T10:36:22.931Z,100599.50
2023-05-01T10:38:49.684Z,100609.75
2023-05-01T10:41:19.106Z,100628.56
2023-05-01T10:43:46.119Z,100623.53
2023-05-01T10:46:21.821Z,100604.13
2023-05-01T10:48:51.495Z,100616.91
2023-05-01T10:51:24.380Z,100578.34
2023-05-01T10:54:14.430Z,100617.09
2023-05-01T10:56:43.071Z,100612.09
2023-05-01T10:59:09.684Z,100624.47
2023-05-01T11:01:43.171Z,100614.44
2023-05-01T11:04:22.141Z,100611.69
2023-05-01T11:07:11.358Z,100612.53
2023-05-01T11:09:41.753Z,100581.41
2023-05-01T11:12:12.781Z,100603.22
2023-05-01T11:14:55.899Z,100611.34
2023-05-01T11:17:44.075Z,100608.38
2023-05-01T11:20:11.482Z,100616.13
2023-05-01T11:22:40.134Z,100589.63
2023-05-01T11:25:20.774Z,100597.38
2023-05-01T11:27:52.367Z,100596.31
2023-05-01T11:30:19.185Z,100619.97
2023-05-01T11:32:47.479Z,100606.88
2023-05-01T11:35:26.437Z,100596.81
2023-05-01T11:37:55.840Z,100592.75
2023-05-01T11:40:26.353Z,100595.63
2023-05-01T11:43:02.689Z,100597.81
2023-05-01T11:45:29.625Z,100602.00
2023-05-01T11:47:56.767Z,100597.72
2023-05-01T11:50:23.964Z,100599.84
2023-05-01T11:52:53.672Z,100541.94
2023-05-01T11:55:21.266Z,100569.84
2023-05-01T11:57:49.400Z,100554.13
2023-05-01T12:00:17.233Z,100591.59
2023-05-01T12:03:10.525Z,100586.81
2023-05-01T12:05:39.278Z,100587.31
2023-05-01T12:08:14.275Z,100586.91
2023-05-01T12:10:43.200Z,100565.22
2023-05-01T12:13:11.057Z,100573.63
2023-05-01T12:15:39.885Z,100537.53
2023-05-01T12:18:06.708Z,100512.41
2023-05-01T12:20:37.935Z,100559.69
2023-05-01T12:23:05.950Z,100556.38
2023-05-01T12:25:36.662Z,100549.84
2023-05-01T12:28:07.897Z,100548.06
2023-05-01T12:30:34.633Z,100553.13
2023-05-01T12:33:06.005Z,100542.84
2023-05-01T12:35:32.969Z,100512.66
2023-05-01T12:37:59.856Z,100531.78
2023-05-01T12:40:27.118Z,100538.56
2023-05-01T12:43:00.192Z,100534.94
2023-05-01T12:45:26.914Z,100501.56
2023-05-01T12:47:53.751Z,100549.00
2023-05-01T12:50:21.008Z,100526.09
2023-05-01T12:52:48.395Z,100537.34
2023-05-01T12:55:15.165Z,100543.22
2023-05-01T12:57:53.101Z,100521.38
2023-05-01T13:00:19.774Z,100524.97
2023-05-01T13:02:46.624Z,100528.78
2023-05-01T13:05:13.711Z,100531.84
2023-05-01T13:07:40.433Z,100543.44
2023-05-01T13:10:07.659Z,100531.72
2023-05-01T13:12:34.512Z,100537.47
2023-05-01T13:15:01.356Z,100556.16
2023-05-01T13:17:32.259Z,100497.31
2023-05-01T13:20:00.608Z,100542.59
2023-05-01T13:22:37.370Z,100537.09
2023-05-01T13:25:05.596Z,100522.78
2023-05-01T13:27:32.664Z,100547.81
2023-05-01T13:30:00.024Z,100545.22
2023-05-01T13:32:27.398Z,100552.03
2023-05-01T13:34:54.484Z,100553.03
2023-05-01T13:37:24.027Z,100530.16
2023-05-01T13:39:51.269Z,100552.59
2023-05-01T13:42:27.110Z,100523.25
2023-05-01T13:44:55.827Z,100544.34
2023-05-01T13:47:26.020Z,100547.84
2023-05-01T13:49:52.921Z,100538.63
2023-05-01T13:52:20.281Z,100530.09
2023-05-01T13:54:47.867Z,100524.19
2023-05-01T13:57:16.133Z,100549.53
2023-05-01T13:59:44.165Z,100550.19
2023-05-01T14:02:29.746Z,100499.84
2023-05-01T14:05:00.079Z,100547.44
2023-05-01T14:07:28.722Z,100548.56
2023-05-01T14:10:00.010Z,100528.25
2023-05-01T14:12:28.735Z,100547.56
2023-05-01T14:14:55.611Z,100519.41
2023-05-01T14:17:36.025Z,100546.53
2023-05-01T14:20:03.007Z,100510.53
2023-05-01T14:22:45.493Z,100545.16
2023-05-01T14:25:34.090Z,100531.84
2023-05-01T14:28:02.129Z,100540.47
2023-05-01T14:30:33.824Z,100534.63
2023-05-01T14:33:04.551Z,100529.91
2023-05-01T14:35:31.401Z,100509.13
2023-05-01T14:38:08.097Z,100535.31
2023-05-01T14:40:34.852Z,100500.34
2023-05-01T14:43:01.792Z,100538.94
2023-05-01T14:45:28.829Z,100532.50
2023-05-01T14:47:57.106Z,100545.59
2023-05-01T14:50:24.409Z,100550.69
2023-05-01T14:52:55.313Z,100527.69
2023-05-01T14:55:28.111Z,100524.63
2023-05-01T14:57:55.605Z,100504.91
2023-05-01T15:00:25.433Z,100527.34
2023-05-01T15:02:52.281Z,100467.25
2023-05-01T15:05:19.290Z,100524.50
2023-05-01T15:07:46.945Z,100524.78
2023-05-01T15:10:13.799Z,100474.44
2023-05-01T15:12:40.714Z,100464.47
2023-05-01T15:15:08.507Z,100512.47
2023-05-01T15:17:35.334Z,100522.06
2023-05-01T15:20:02.308Z,100534.81
2023-05-01T15:22:31.307Z,100530.31
2023-05-01T15:24:58.385Z,100532.81
2023-05-01T15:27:25.589Z,100527.78
2023-05-01T15:29:52.432Z,100527.47
2023-05-01T15:32:19.411Z,100526.19
2023-05-01T15:34:46.591Z,100519.22
2023-05-01T15:37:13.884Z,100511.41
2023-05-01T15:39:40.796Z,100491.34
2023-05-01T15:42:08.149Z,100518.19
2023-05-01T15:44:35.116Z,100509.13
2023-05-01T15:47:02.155Z,100505.34
2023-05-01T15:49:29.052Z,100487.50
2023-05-01T15:51:56.195Z,100494.66
2023-05-01T15:54:24.721Z,100495.59
2023-05-01T15:56:51.719Z,100492.44
2023-05-01T15:59:18.446Z,100493.34
2023-05-01T16:01:45.322Z,100465.69
2023-05-01T16:04:12.361Z,100490.97
2023-05-01T16:06:40.526Z,100495.09
2023-05-01T16:09:07.997Z,100469.38
2023-05-01T16:11:34.810Z,100503.00
2023-05-01T16:14:01.533Z,100502.19
2023-05-01T16:16:28.669Z,100503.44
2023-05-01T16:18:57.441Z,100488.75
2023-05-01T16:21:24.786Z,100500.16
2023-05-01T16:23:53.248Z,100457.81
2023-05-01T16:26:28.388Z,100491.13
2023-05-01T16:28:58.854Z,100491.13
2023-05-01T16:31:27.415Z,100485.34
2023-05-01T16:33:54.948Z,100493.34
2023-05-01T16:36:21.851Z,100478.38
2023-05-01T16:38:48.867Z,100484.72
2023-05-01T16:41:19.130Z,100494.28
2023-05-01T16:43:46.510Z,100482.13
2023-05-01T16:46:15.462Z,100476.88
2023-05-01T16:48:42.326Z,100452.44
2023-05-01T16:51:09.870Z,100465.69
2023-05-01T16:53:36.898Z,100484.69
2023-05-01T16:56:04.530Z,100460.88
2023-05-01T16:58:31.414Z,100480.53
2023-05-01T17:00:58.541Z,100486.31
2023-05-01T17:03:25.304Z,100488.75
2023-05-01T17:05:52.316Z,100483.78
2023-05-01T17:08:19.343Z,100480.03
2023-05-01T17:10:46.242Z,100467.25
2023-05-01T17:13:15.839Z,100471.13
2023-05-01T17:15:43.092Z,100477.56
2023-05-01T17:18:10.012Z,100485.75
2023-05-01T17:20:36.854Z,100495.84
2023-05-01T17:23:04.050Z,100485.47
2023-05-01T17:25:30.853Z,100444.44
2023-05-01T17:27:59.145Z,100480.34
2023-05-01T17:30:26.121Z,100476.03
2023-05-01T17:32:53.440Z,100424.41
2023-05-01T17:35:20.490Z,100456.84
2023-05-01T17:37:47.486Z,100492.22
2023-05-01T17:40:14.338Z,100478.25
2023-05-01T17:42:41.962Z,100479.34
2023-05-01T17:45:10.605Z,100471.91
2023-05-01T17:47:41.652Z,100468.59
2023-05-01T17:50:10.527Z,100461.63
2023-05-01T17:52:38.724Z,100458.31
2023-05-01T17:55:06.326Z,100457.41
2023-05-01T17:57:37.607Z,100425.03
2023-05-01T18:00:06.323Z,100458.06
2023-05-01T18:02:35.628Z,100425.78
2023-05-01T18:05:02.309Z,100375.25
2023-05-01T18:07:30.885Z,100463.91
2023-05-01T18:09:58.477Z,100468.66
2023-05-01T18:12:25.626Z,100455.41
2023-05-01T18:14:52.718Z,100456.91
2023-05-01T18:17:21.783Z,100454.59
2023-05-01T18:19:50.216Z,100460.38
2023-05-01T18:22:17.405Z,100462.66
2023-05-01T18:24:44.189Z,100427.72
2023-05-01T18:27:11.744Z,100439.88
2023-05-01T18:29:39.715Z,100443.34
2023-05-01T18:32:07.309Z,100459.75
2023-05-01T18:34:34.059Z,100457.28
2023-05-01T18:37:00.787Z,100414.25
2023-05-01T18:39:27.657Z,100454.25
2023-05-01T18:41:54.776Z,100407.41
2023-05-01T18:44:21.684Z,100424.97
2023-05-01T18:46:49.248Z,100419.50
2023-05-01T18:49:16.032Z,100449.31
2023-05-01T18:51:43.172Z,100443.91
2023-05-01T18:54:10.242Z,100440.81
2023-05-01T18:56:37.241Z,100452.09
2023-05-01T18:59:03.995Z,100447.13
2023-05-01T19:01:30.994Z,100442.53
2023-05-01T19:03:59.519Z,100445.13
2023-05-01T19:06:26.852Z,100409.81
2023-05-01T19:08:53.861Z,100414.22
2023-05-01T19:11:21.694Z,100440.47
2023-05-01T19:13:48.990Z,100437.66
2023-05-01T19:16:16.031Z,100453.88
2023-05-01T19:18:42.822Z,100465.13
2023-05-01T19:21:11.129Z,100466.56
2023-05-01T19:23:40.025Z,100469.63
2023-05-01T19:26:08.028Z,100428.06
2023-05-01T19:28:35.217Z,100455.19
2023-05-01T19:31:02.163Z,100476.00
2023-05-01T19:33:28.911Z,100470.53
2023-05-01T19:35:55.967Z,100463.81
2023-05-01T19:38:22.781Z,100453.50
2023-05-01T19:40:49.571Z,100467.59
2023-05-01T19:43:16.590Z,100468.63
2023-05-01T19:45:43.926Z,100468.88
2023-05-01T19:48:10.789Z,100475.84
2023-05-01T19:50:37.558Z,100461.13
2023-05-01T19:53:05.599Z,100488.59
2023-05-01T19:55:32.570Z,100504.22
2023-05-01T19:57:59.386Z,100503.59
2023-05-01T20:00:27.752Z,100498.84
2023-05-01T20:02:54.655Z,100456.59
2023-05-01T20:05:21.601Z,100488.69
2023-05-01T20:07:48.562Z,100516.59
2023-05-01T20:10:16.857Z,100494.09
2023-05-01T20:12:43.605Z,100518.69
2023-05-01T20:15:12.276Z,100505.44
2023-05-01T20:17:39.017Z,100486.06
2023-05-01T20:20:06.219Z,100501.69
2023-05-01T20:22:33.153Z,100517.41
2023-05-01T20:25:00.192Z,100501.97
2023-05-01T20:27:27.035Z,100522.47
2023-05-01T20:29:54.044Z,100524.53
2023-05-01T20:32:20.747Z,100510.97
2023-05-01T20:34:48.062Z,100542.91
2023-05-01T20:37:15.015Z,100547.59
2023-05-01T20:39:41.722Z,100522.72
2023-05-01T20:42:08.584Z,100534.06
2023-05-01T20:44:35.472Z,100551.19
2023-05-01T20:47:02.184Z,100538.53
2023-05-01T20:49:28.908Z,100538.41
2023-05-01T20:51:57.215Z,100515.97
2023-05-01T20:54:25.691Z,100553.78
2023-05-01T20:56:52.496Z,100526.50
2023-05-01T20:59:19.390Z,100475.38
2023-05-01T21:01:46.248Z,100435.56
2023-05-01T21:04:14.344Z,100554.97
2023-05-01T21:06:41.404Z,100555.63
2023-05-01T21:09:11.194Z,100558.69
2023-05-01T21:11:40.168Z,100562.19
2023-05-01T21:14:08.153Z,100560.03
2023-05-01T21:16:35.066Z,100539.94
2023-05-01T21:19:01.841Z,100508.41
2023-05-01T21:21:29.233Z,100529.31
2023-05-01T21:23:56.105Z,100501.94
2023-05-01T21:26:22.938Z,100514.06
2023-05-01T21:28:49.728Z,100560.47
2023-05-01T21:31:16.515Z,100514.28
2023-05-01T21:33:46.398Z,100559.13
2023-05-01T21:36:13.500Z,100569.63
2023-05-01T21:38:40.353Z,100546.84
2023-05-01T21:41:07.129Z,100566.28
2023-05-01T21:43:34.227Z,100563.00
2023-05-01T21:46:01.050Z,100571.81
2023-05-01T21:48:27.884Z,100571.66
2023-05-01T21:50:54.766Z,100553.03
2023-05-01T21:53:21.776Z,100543.91
2023-05-01T21:55:48.591Z,100560.19
2023-05-01T21:58:15.520Z,100549.06
2023-05-01T22:00:42.810Z,100539.28
2023-05-01T22:03:10.685Z,100568.19
2023-05-01T22:05:41.207Z,100567.69
2023-05-01T22:08:07.983Z,100566.72
2023-05-01T22:10:34.746Z,100558.06
2023-05-01T22:13:01.571Z,100561.41
2023-05-01T22:15:28.293Z,100552.25
2023-05-01T22:17:55.104Z,100533.63
2023-05-01T22:20:22.100Z,100529.94
2023-05-01T22:22:48.902Z,100529.09
2023-05-01T22:25:16.813Z,100510.16
2023-05-01T22:27:43.742Z,100490.34
2023-05-01T22:30:11.374Z,100500.66
2023-05-01T22:32:38.220Z,100487.19
2023-05-01T22:35:05.436Z,100515.16
2023-05-01T22:37:32.150Z,100519.63
2023-05-01T22:39:59.755Z,100523.78
2023-05-01T22:42:27.010Z,100516.97
2023-05-01T22:44:53.849Z,100508.66
2023-05-01T22:47:20.596Z,100501.16
2023-05-01T22:49:47.484Z,100503.16
2023-05-01T22:52:14.525Z,100501.16
2023-05-01T22:54:41.280Z,100502.00
2023-05-01T22:57:08.120Z,100499.16
2023-05-01T22:59:35.913Z,100494.53
2023-05-01T23:02:05.614Z,100509.31
2023-05-01T23:04:32.657Z,100516.13
2023-05-01T23:06:59.513Z,100471.56
2023-05-01T23:09:26.617Z,100484.22
2023-05-01T23:11:53.651Z,100454.13
2023-05-01T23:14:20.540Z,100496.34
2023-05-01T23:16:47.461Z,100496.84
2023-05-01T23:19:24.104Z,100476.03
2023-05-01T23:22:05.017Z,100493.16
2023-05-01T23:24:49.981Z,100489.19
2023-05-01T23:27:17.452Z,100478.19
2023-05-01T23:30:00.463Z,100451.91
2023-05-01T23:32:32.033Z,100452.59
2023-05-01T23:35:14.109Z,100479.72
2023-05-01T23:37:40.840Z,100472.22
2023-05-01T23:40:08.425Z,100468.94
2023-05-01T23:42:37.031Z,100474.59
2023-05-01T23:45:05.157Z,100460.28
2023-05-01T23:47:31.885Z,100467.44
2023-05-01T23:49:58.961Z,100433.75
2023-05-01T23:52:26.079Z,100465.25
2023-05-01T23:54:52.992Z,100462.41
2023-05-01T23:57:19.937Z,100465.91
2023-05-01T23:59:46.685Z,100464.41
